Carpenter, WY (82054)

3:40 PM MDT on August 23, 2014 (GMT -0600)
Hillsdale South Ranchettes | Change Station
CLOSE
Current Station
Personal Weather Station
Location: Carpenter, WY
Elevation: 5735 ft
Nearby Weather Stations

Elev 5735 ft 41.13 °N, 104.51 °W | Updated 1 second ago

Mostly Cloudy
Mostly Cloudy
57.8 °F
Feels Like 57.8 °F
N
14.0
Wind Variable Wind from WNW
Gusts 14.0 mph

Today
High -- | Low -- °F
--% Chance of Precip.
Yesterday
High -- | Low -- °F
Precip. -- in
6:15 AM 7:44 PM
Waning Crescent, 3% visible
Pressure 29.90 in
Visibility 10.0 miles
Clouds Scattered Clouds 7500 ft
Mostly Cloudy 10000 ft
Dew Point 51 °F
Humidity 77%
Rainfall 0.14 in
Snow Depth Not available.
UV 4 out of 12
Pollen 8.50 out of 12
Air Quality Not available.
Flu Activity Not available.
METAR K82V 232115Z AUTO 34007KT 10SM VCTS SCT075 BKN100 23/09 A2990 RMK AO2 LTG DSNT NE AND E

More Conditions Fewer Conditions

Pressure 29.90 in
Visibility 10.0 miles
Clouds Scattered Clouds 7500 ft
Mostly Cloudy 10000 ft
Dew Point 51 °F
Humidity 77%
Rainfall 0.14 in
Snow Depth Not available.
UV 4 out of 12
Pollen 8.50 out of 12
Air Quality Not available.
Flu Activity Not available.
METAR K82V 232115Z AUTO 34007KT 10SM VCTS SCT075 BKN100 23/09 A2990 RMK AO2 LTG DSNT NE AND E

More Conditions Fewer Conditions

10-Day Weather Forecast

Almanac

Astronomy

Aug. 23, 2014 Rise Set
Actual Time 6:15 AM MDT 7:44 PM MDT
Civil Twilight 5:46 AM MDT 8:12 PM MDT
Nautical Twilight 5:11 AM MDT 8:47 PM MDT
Astronomical Twilight 4:34 AM MDT 9:24 PM MDT
Moon 4:33 AM MDT 6:30 PM MDT
Length of Visible Light 14h 26m
Length of Day
13h 28m
Tomorrow will be 2m 32s shorter.
Waning Crescent, 3% of the Moon is Illuminated
Today
Waning Crescent
Aug 25
New
Sep 2
First Quarter
Sep 8
Full
Sep 15
Last Quarter

Today's Extremes

State Highs State Lows

Community

WunderPhotos

Upload Photos

1,746,633 photos uploaded!

WunderBlogs® & News

By Dr. Jeff Masters
Director of Meteorology, Weather Underground
By Kari Strenfel
Meteorologist, Weather Underground
By Christopher C. Burt
Weather Historian, Weather Underground
August 23, 2014
August 23, 2014
August 23, 2014

Nearby

Snow Depth

Station Depth Elevation
Crow Creek 0 in 8330 ft
Cinnabar Park 0 in 9690 ft
Sand Lake 0 in 10050 ft
South Brush Creek 0 in 8440 ft
Old Battle 0 in 9920 ft

Earthquake Activity

City Distance Mag. Time & Date
No recent earthquake activity has been reported nearby.
Minimum magnitude displayed is 2.5.

Coastal Water Temperatures

Place Temperature
No Stations Reporting

Nearby Weather Stations